Time;durP1;ratioP1;P1;durP2;ratioP2;P2;SDS_P1;SDS_P2;PMS_P1;PMS_P2;Temp;Humidity;BMP_temperature;BMP_pressure;BME280_temperature;BME280_humidity;BME280_pressure;Samples;Min_cycle;Max_cycle;Signal;HPM_P1;HPM_P2
2023/06/08 00:00:39;;;;;;;14.25;7.55;;;;;;;13.37;81.01;99485.88;5057002;28;20055;-70
2023/06/08 00:03:04;;;;;;;13.93;8.77;;;;;;;13.35;81.22;99487.81;5054372;28;20518;-69
2023/06/08 00:05:31;;;;;;;12.50;8.68;;;;;;;13.33;81.22;99487.94;5055959;28;20529;-70
2023/06/08 00:07:57;;;;;;;15.95;8.00;;;;;;;13.29;80.99;99491.03;5037178;28;20051;-70
2023/06/08 00:10:22;;;;;;;12.98;7.50;;;;;;;13.27;81.24;99485.81;5055811;28;20043;-70
2023/06/08 00:12:47;;;;;;;12.27;8.57;;;;;;;13.26;81.39;99486.78;5054118;28;20054;-67
2023/06/08 00:15:13;;;;;;;13.77;7.80;;;;;;;13.25;81.40;99492.25;5034988;28;20506;-67
2023/06/08 00:17:38;;;;;;;18.35;8.98;;;;;;;13.21;81.42;99480.94;5055757;28;20036;-72
2023/06/08 00:20:09;;;;;;;13.48;7.68;;;;;;;13.20;81.41;99500.69;5017723;28;20392;-67
2023/06/08 00:22:36;;;;;;;14.80;8.30;;;;;;;13.22;81.53;99492.50;5053156;28;20043;-68
2023/06/08 00:25:05;;;;;;;14.98;8.00;;;;;;;13.19;81.29;99487.44;5054634;28;20044;-67
2023/06/08 00:27:31;;;;;;;13.05;7.15;;;;;;;13.21;81.47;99490.81;5055140;28;20048;-70
2023/06/08 00:29:57;;;;;;;15.77;7.70;;;;;;;13.20;81.57;99516.75;5055101;28;20038;-69
2023/06/08 00:32:22;;;;;;;10.50;6.82;;;;;;;13.17;81.23;99490.25;5055158;28;20047;-69
2023/06/08 00:34:47;;;;;;;17.05;8.02;;;;;;;13.16;81.30;99488.53;5035605;28;20037;-68
2023/06/08 00:37:12;;;;;;;15.00;8.30;;;;;;;13.14;81.17;99501.19;5048883;28;20429;-68
2023/06/08 00:39:37;;;;;;;12.88;6.82;;;;;;;13.12;81.13;99502.25;5020082;28;20047;-67
2023/06/08 00:42:03;;;;;;;13.65;7.80;;;;;;;13.08;81.08;99502.56;5036106;28;20044;-68
2023/06/08 00:44:28;;;;;;;15.35;7.75;;;;;;;13.06;81.03;99503.66;5055119;28;20490;-66
2023/06/08 00:46:54;;;;;;;13.38;6.78;;;;;;;13.03;81.41;99509.25;5053832;28;20524;-67
2023/06/08 00:49:20;;;;;;;19.95;8.18;;;;;;;13.02;81.46;99502.19;5036588;28;20063;-66
2023/06/08 00:51:47;;;;;;;16.40;7.40;;;;;;;12.98;81.32;99511.47;5055165;28;20491;-67
2023/06/08 00:54:14;;;;;;;15.50;8.13;;;;;;;12.96;81.06;99486.66;5054885;28;20415;-67
2023/06/08 00:56:41;;;;;;;17.35;8.63;;;;;;;12.95;81.79;99522.44;5055056;28;20036;-67
2023/06/08 00:59:09;;;;;;;12.10;8.10;;;;;;;12.94;81.48;99507.34;5054697;28;20066;-68
2023/06/08 01:01:35;;;;;;;10.63;7.45;;;;;;;12.93;81.42;99513.66;5053503;28;20415;-67
2023/06/08 01:04:09;;;;;;;16.65;7.60;;;;;;;12.92;81.22;99523.53;5052406;28;20047;-70
2023/06/08 01:07:14;;;;;;;12.13;7.18;;;;;;;13.00;81.66;99510.34;5055105;28;20575;-69
2023/06/08 01:10:05;;;;;;;16.13;7.95;;;;;;;13.01;81.60;99516.56;5034279;28;20052;-68
2023/06/08 01:13:13;;;;;;;13.75;8.00;;;;;;;13.01;81.25;99516.56;5056144;28;20058;-70
2023/06/08 01:15:44;;;;;;;16.08;8.00;;;;;;;12.92;81.28;99512.81;5055420;28;20039;-69
2023/06/08 01:18:17;;;;;;;12.45;7.55;;;;;;;12.94;81.17;99520.72;5036751;28;20548;-67
2023/06/08 01:20:46;;;;;;;13.32;7.97;;;;;;;12.94;81.17;99515.38;5052964;28;20051;-69
2023/06/08 01:23:34;;;;;;;12.23;7.03;;;;;;;12.92;81.25;99518.16;5055946;28;20398;-72
2023/06/08 01:26:03;;;;;;;12.52;8.13;;;;;;;12.93;80.78;99514.53;5047406;28;20055;-68
2023/06/08 01:28:30;;;;;;;18.95;7.80;;;;;;;12.92;80.96;99518.16;5051155;28;20074;-69
2023/06/08 01:31:01;;;;;;;18.80;7.80;;;;;;;12.93;81.06;99529.72;5045485;28;20055;-70
2023/06/08 01:33:29;;;;;;;19.40;7.60;;;;;;;12.94;81.04;99520.72;5054332;28;20044;-69
2023/06/08 01:35:54;;;;;;;19.95;8.38;;;;;;;12.95;80.76;99520.59;5034144;28;20055;-73
2023/06/08 01:38:31;;;;;;;13.55;7.65;;;;;;;13.01;80.93;99521.91;5054287;28;20043;-69
2023/06/08 01:41:04;;;;;;;22.35;8.27;;;;;;;13.00;80.77;99520.19;5056466;28;20040;-69
2023/06/08 01:43:31;;;;;;;12.75;8.60;;;;;;;12.98;80.49;99539.06;5050005;28;20050;-68
2023/06/08 01:46:00;;;;;;;12.85;7.55;;;;;;;13.05;80.88;99544.75;5058420;28;20040;-67
2023/06/08 01:48:28;;;;;;;13.43;7.00;;;;;;;13.06;80.82;99520.56;5061247;28;20044;-72
2023/06/08 01:50:55;;;;;;;12.80;7.63;;;;;;;13.13;80.84;99528.91;5060108;28;20081;-68
2023/06/08 01:53:20;;;;;;;14.68;8.05;;;;;;;13.17;80.91;99510.81;5039667;28;20510;-70
2023/06/08 01:55:50;;;;;;;15.57;8.63;;;;;;;13.24;80.33;99512.81;5040795;28;20059;-72
2023/06/08 01:58:15;;;;;;;14.05;8.40;;;;;;;13.26;80.28;99476.06;5024492;28;20048;-69
2023/06/08 02:00:40;;;;;;;17.48;7.78;;;;;;;13.31;80.13;99507.81;5040984;28;20055;-67
2023/06/08 02:03:05;;;;;;;13.48;7.63;;;;;;;13.34;79.99;99519.09;5059054;28;20055;-68
2023/06/08 02:05:31;;;;;;;15.65;7.38;;;;;;;13.38;79.67;99519.69;5058523;28;20044;-68
2023/06/08 02:07:59;;;;;;;14.88;8.02;;;;;;;13.43;79.69;99518.31;5058536;28;20510;-68
2023/06/08 02:10:24;;;;;;;15.40;8.45;;;;;;;13.50;79.58;99523.16;5059170;28;20047;-67
2023/06/08 02:12:50;;;;;;;17.15;9.02;;;;;;;13.55;79.41;99526.28;5041101;28;20044;-68
2023/06/08 02:15:15;;;;;;;13.93;9.25;;;;;;;13.62;79.43;99530.16;5058341;28;20044;-68
2023/06/08 02:17:43;;;;;;;16.48;8.90;;;;;;;13.69;79.37;99531.31;5059747;28;20036;-67
2023/06/08 02:20:09;;;;;;;15.57;8.10;;;;;;;13.74;78.80;99542.50;5060162;28;20067;-67
2023/06/08 02:22:36;;;;;;;15.40;8.32;;;;;;;13.82;78.56;99524.75;5041358;28;20044;-67
2023/06/08 02:25:02;;;;;;;15.50;8.68;;;;;;;13.89;78.52;99534.94;5041140;28;20058;-68
2023/06/08 02:27:29;;;;;;;18.45;8.35;;;;;;;13.98;78.33;99526.97;5059614;28;20055;-68
2023/06/08 02:29:58;;;;;;;18.48;9.05;;;;;;;14.08;77.75;99529.69;5041851;28;20498;-67
2023/06/08 02:32:23;;;;;;;14.57;8.35;;;;;;;14.17;77.65;99534.22;5042268;28;20134;-68
2023/06/08 02:34:55;;;;;;;11.93;8.05;;;;;;;14.27;77.72;99531.59;5041899;28;20054;-68
2023/06/08 02:37:23;;;;;;;15.20;8.38;;;;;;;14.39;77.27;99536.75;5041836;28;20051;-68
2023/06/08 02:39:48;;;;;;;11.60;8.02;;;;;;;14.50;77.06;99535.78;5060498;28;20048;-68
2023/06/08 02:42:14;;;;;;;19.80;8.45;;;;;;;14.61;76.64;99533.00;5041389;28;20044;-69
2023/06/08 02:44:41;;;;;;;14.30;8.23;;;;;;;14.72;76.39;99529.34;5059374;28;20054;-68
2023/06/08 02:47:08;;;;;;;13.68;8.00;;;;;;;14.84;76.10;99534.44;5042986;28;20051;-69
2023/06/08 02:49:33;;;;;;;20.05;8.48;;;;;;;14.95;75.07;99525.41;5060147;28;20047;-69
2023/06/08 02:51:58;;;;;;;14.02;8.25;;;;;;;15.08;74.52;99530.50;5058058;28;20051;-68
2023/06/08 02:54:24;;;;;;;17.13;8.93;;;;;;;15.16;74.22;99550.28;5041541;28;20044;-69
2023/06/08 02:56:49;;;;;;;16.80;9.52;;;;;;;15.31;73.63;99539.13;5039287;28;20044;-69
2023/06/08 02:59:16;;;;;;;18.50;8.85;;;;;;;15.41;73.62;99527.38;5040324;28;20054;-68
2023/06/08 03:01:51;;;;;;;18.45;9.48;;;;;;;15.52;72.64;99512.94;5037074;28;20048;-69
2023/06/08 03:04:19;;;;;;;17.30;9.38;;;;;;;15.66;72.36;99536.72;5039930;28;20383;-69
2023/06/08 03:06:54;;;;;;;17.60;9.75;;;;;;;15.79;71.50;99536.41;5021181;28;20044;-70
2023/06/08 03:09:24;;;;;;;18.52;9.48;;;;;;;15.90;71.20;99534.41;5020149;28;20056;-70
2023/06/08 03:11:52;;;;;;;15.32;9.02;;;;;;;16.02;70.49;99543.16;5035700;28;20067;-70
2023/06/08 03:14:18;;;;;;;17.45;8.15;;;;;;;16.17;70.11;99533.59;5018465;28;20422;-69
2023/06/08 03:16:45;;;;;;;16.13;9.05;;;;;;;16.30;69.69;99542.16;5037896;28;20402;-69
2023/06/08 03:19:10;;;;;;;14.35;8.63;;;;;;;16.43;69.90;99547.22;5037757;28;20052;-69
2023/06/08 03:21:38;;;;;;;13.88;8.80;;;;;;;16.56;69.05;99541.47;5041693;28;20049;-69
2023/06/08 03:24:05;;;;;;;14.20;9.20;;;;;;;16.68;68.68;99557.31;5042896;28;20040;-70
2023/06/08 03:26:30;;;;;;;14.95;9.88;;;;;;;16.82;68.29;99545.16;5041787;28;20048;-70
2023/06/08 03:28:57;;;;;;;15.80;8.20;;;;;;;16.96;67.65;99550.03;5042491;28;20044;-70
2023/06/08 03:31:22;;;;;;;14.57;8.75;;;;;;;17.05;66.95;99548.25;5041316;28;20051;-70
2023/06/08 03:33:49;;;;;;;12.77;9.15;;;;;;;17.15;66.81;99564.38;5042258;28;20044;-70
2023/06/08 03:36:15;;;;;;;18.80;11.02;;;;;;;17.29;66.49;99561.13;5039386;28;20051;-70
2023/06/08 03:38:43;;;;;;;19.63;8.93;;;;;;;17.42;66.05;99535.50;5036602;28;20407;-69
2023/06/08 03:41:13;;;;;;;15.48;9.68;;;;;;;17.59;65.24;99560.75;5038798;28;20048;-69
2023/06/08 03:43:39;;;;;;;13.93;8.68;;;;;;;17.71;65.17;99578.41;5034361;28;20052;-70
2023/06/08 03:46:05;;;;;;;16.08;11.05;;;;;;;17.86;64.93;99575.09;5020852;28;20052;-69
2023/06/08 03:48:30;;;;;;;17.48;9.27;;;;;;;17.98;64.32;99553.13;5019168;28;20403;-69
2023/06/08 03:50:57;;;;;;;16.08;10.57;;;;;;;18.12;63.64;99566.03;5036845;28;20052;-69
2023/06/08 03:53:25;;;;;;;16.83;9.27;;;;;;;18.26;63.50;99556.50;5017816;28;20067;-69
2023/06/08 03:55:50;;;;;;;14.20;9.95;;;;;;;18.40;63.40;99563.97;5030031;28;20049;-69
2023/06/08 03:58:16;;;;;;;18.98;10.00;;;;;;;18.54;63.00;99553.56;5036217;28;20048;-70
2023/06/08 04:00:43;;;;;;;18.08;10.05;;;;;;;18.67;62.35;99554.84;5034914;28;20040;-69
2023/06/08 04:03:10;;;;;;;16.58;9.52;;;;;;;18.79;62.62;99590.50;5051383;28;20067;-70
2023/06/08 04:05:36;;;;;;;14.95;8.73;;;;;;;18.91;61.74;99562.19;5048589;28;20122;-70
2023/06/08 04:08:02;;;;;;;18.70;9.45;;;;;;;19.05;61.29;99558.00;5019515;28;20410;-71
2023/06/08 04:10:28;;;;;;;15.18;9.50;;;;;;;19.19;61.19;99558.19;5020249;28;20045;-70
2023/06/08 04:12:54;;;;;;;15.18;10.02;;;;;;;19.31;60.86;99561.41;5035935;28;20040;-70
2023/06/08 04:15:19;;;;;;;12.25;9.35;;;;;;;19.45;60.75;99568.00;5046030;28;20051;-71
2023/06/08 04:17:46;;;;;;;15.35;9.23;;;;;;;19.55;60.56;99557.91;5037158;28;20041;-69
2023/06/08 04:20:15;;;;;;;15.38;9.20;;;;;;;19.66;59.59;99557.56;5030854;28;20411;-70
2023/06/08 04:22:42;;;;;;;14.98;9.00;;;;;;;19.79;59.61;99560.59;5034132;28;20056;-68
2023/06/08 04:25:08;;;;;;;18.10;9.32;;;;;;;19.93;58.83;99565.34;5035204;28;20518;-70
2023/06/08 04:27:34;;;;;;;15.18;9.82;;;;;;;20.11;58.59;99562.41;5017970;28;20040;-69
2023/06/08 04:30:02;;;;;;;13.43;9.02;;;;;;;20.28;57.99;99560.53;5034188;28;20044;-68
2023/06/08 04:32:31;;;;;;;17.55;9.57;;;;;;;20.43;57.52;99572.34;5017766;28;20067;-69
2023/06/08 04:34:56;;;;;;;19.10;9.70;;;;;;;20.61;57.38;99564.00;5018337;28;20048;-68
2023/06/08 04:37:22;;;;;;;13.23;8.80;;;;;;;20.74;56.63;99580.53;5017813;28;20044;-70
2023/06/08 04:39:48;;;;;;;16.08;9.15;;;;;;;20.95;56.61;99552.81;5017817;28;20048;-68
2023/06/08 04:42:17;;;;;;;14.48;9.23;;;;;;;21.23;56.20;99562.16;5034352;28;20044;-69
2023/06/08 04:44:43;;;;;;;11.93;8.40;;;;;;;21.50;55.19;99563.47;5017749;28;20561;-68
2023/06/08 04:47:09;;;;;;;14.10;8.35;;;;;;;21.84;54.25;99573.03;5017509;28;20052;-68
2023/06/08 04:49:35;;;;;;;16.00;9.15;;;;;;;22.16;53.09;99567.31;5034851;28;20055;-70
2023/06/08 04:52:02;;;;;;;17.48;9.23;;;;;;;22.41;52.04;99571.47;5017262;28;20265;-68
2023/06/08 04:54:28;;;;;;;16.48;8.95;;;;;;;22.73;51.25;99559.34;5017189;28;20051;-68
2023/06/08 04:56:58;;;;;;;11.30;8.63;;;;;;;23.07;50.72;99544.31;5031090;28;20044;-70
2023/06/08 04:59:27;;;;;;;12.88;8.55;;;;;;;23.31;49.58;99557.53;5000594;28;20071;-71
2023/06/08 05:01:53;;;;;;;17.20;9.25;;;;;;;23.62;49.37;99553.69;5042985;28;20067;-69
2023/06/08 05:04:19;;;;;;;15.27;9.45;;;;;;;23.91;48.27;99555.41;5037204;28;20060;-69
2023/06/08 05:06:45;;;;;;;12.88;8.68;;;;;;;24.35;48.17;99495.19;5055449;28;20051;-69
2023/06/08 05:09:12;;;;;;;13.77;9.25;;;;;;;24.59;46.52;99491.94;5037271;28;20056;-69
2023/06/08 05:11:38;;;;;;;14.77;8.50;;;;;;;24.74;46.10;99533.50;5036956;28;20044;-69
2023/06/08 05:14:03;;;;;;;17.45;9.73;;;;;;;25.06;46.09;99553.78;5037211;28;20063;-70
2023/06/08 05:16:28;;;;;;;13.35;8.20;;;;;;;25.23;43.52;99549.66;5055333;28;20044;-69
2023/06/08 05:18:53;;;;;;;14.82;8.05;;;;;;;25.40;43.24;99561.00;5054367;28;20418;-70
2023/06/08 05:21:18;;;;;;;14.35;7.88;;;;;;;25.52;41.67;99559.34;5057330;28;20036;-68
2023/06/08 05:23:44;;;;;;;15.40;7.15;;;;;;;25.57;41.10;99573.22;5057999;28;20517;-70
2023/06/08 05:26:09;;;;;;;13.82;6.65;;;;;;;25.52;39.72;99592.09;5038130;28;20065;-71
2023/06/08 05:28:34;;;;;;;15.77;6.82;;;;;;;25.66;40.30;99569.28;5059464;28;20048;-69
2023/06/08 05:31:00;;;;;;;15.88;7.55;;;;;;;25.90;40.05;99556.06;5042078;28;20055;-70
2023/06/08 05:33:26;;;;;;;13.80;7.00;;;;;;;26.01;39.22;99590.94;5059215;28;20048;-71
2023/06/08 05:35:51;;;;;;;13.55;7.78;;;;;;;26.26;39.60;99564.66;5057993;28;20047;-69
2023/06/08 05:38:17;;;;;;;13.88;7.22;;;;;;;26.46;38.58;99581.03;5063911;28;20051;-69
2023/06/08 05:40:42;;;;;;;9.00;6.45;;;;;;;26.72;38.39;99570.03;5046030;28;20063;-70
2023/06/08 05:43:07;;;;;;;13.15;6.43;;;;;;;27.16;37.58;99567.56;5061485;28;20126;-70
2023/06/08 05:45:33;;;;;;;10.55;5.57;;;;;;;27.47;36.23;99556.63;5058927;28;20059;-70
2023/06/08 05:47:58;;;;;;;6.10;4.35;;;;;;;27.80;35.39;99562.72;5055443;28;20055;-70
2023/06/08 05:50:23;;;;;;;6.05;4.60;;;;;;;28.09;33.98;99563.13;5037542;28;20044;-70
2023/06/08 05:52:48;;;;;;;6.60;4.07;;;;;;;28.22;33.69;99562.22;5055242;28;20406;-72
2023/06/08 05:55:13;;;;;;;7.72;5.15;;;;;;;28.36;32.65;99563.72;5053976;28;20506;-70
2023/06/08 05:57:40;;;;;;;9.50;4.80;;;;;;;28.75;32.66;99568.78;5054918;28;20043;-70
2023/06/08 06:00:09;;;;;;;6.25;4.60;;;;;;;29.01;31.50;99555.84;5054592;28;20035;-70
2023/06/08 06:02:40;;;;;;;5.50;4.10;;;;;;;29.66;30.32;99517.53;5054318;28;20075;-70
2023/06/08 06:05:08;;;;;;;6.10;4.47;;;;;;;30.11;29.66;99509.59;5054704;28;20043;-69
2023/06/08 06:07:34;;;;;;;7.05;4.22;;;;;;;30.56;29.03;99518.91;5019749;28;20430;-70
2023/06/08 06:09:59;;;;;;;6.50;4.50;;;;;;;31.03;28.67;99510.50;5054439;28;20445;-70
2023/06/08 06:12:25;;;;;;;5.40;4.88;;;;;;;31.73;27.99;99505.47;5054679;28;20040;-70
2023/06/08 06:14:52;;;;;;;7.63;4.25;;;;;;;32.35;26.17;99502.59;5054712;28;20040;-70
2023/06/08 06:17:17;;;;;;;6.22;4.03;;;;;;;32.99;25.52;99513.91;5041263;28;20059;-70
2023/06/08 06:19:42;;;;;;;9.63;4.60;;;;;;;33.58;25.21;99508.47;5060400;28;20040;-70
2023/06/08 06:22:10;;;;;;;5.32;4.53;;;;;;;34.07;24.18;99558.16;5043684;28;20052;-70
2023/06/08 06:24:36;;;;;;;8.82;5.13;;;;;;;34.52;24.48;99560.44;5038527;28;20043;-70
2023/06/08 06:27:02;;;;;;;7.10;5.13;;;;;;;34.79;23.74;99563.91;5035799;28;20529;-71
2023/06/08 06:29:28;;;;;;;8.65;5.35;;;;;;;34.74;23.16;99558.31;5055060;28;20051;-70
2023/06/08 06:31:53;;;;;;;6.63;4.80;;;;;;;34.82;23.02;99571.69;5058151;28;20035;-70
2023/06/08 06:34:19;;;;;;;6.00;4.68;;;;;;;35.12;22.54;99539.66;5057934;28;20036;-71
2023/06/08 06:36:45;;;;;;;5.97;4.47;;;;;;;35.62;22.84;99514.00;5022720;28;20055;-69
2023/06/08 06:39:10;;;;;;;6.13;4.65;;;;;;;36.06;22.11;99514.28;5022468;28;20521;-69
2023/06/08 06:41:35;;;;;;;6.95;4.68;;;;;;;36.50;22.16;99508.09;5056884;28;20843;-70
2023/06/08 06:44:01;;;;;;;6.50;4.80;;;;;;;36.89;21.44;99509.09;5058338;28;20040;-70
2023/06/08 06:46:29;;;;;;;5.50;4.57;;;;;;;37.29;21.43;99513.63;5039896;28;20051;-69
2023/06/08 06:48:54;;;;;;;5.63;4.90;;;;;;;37.61;21.45;99520.63;5038777;28;20055;-70
2023/06/08 06:51:19;;;;;;;9.02;5.47;;;;;;;37.94;20.68;99521.75;5022398;28;20490;-70
2023/06/08 06:53:44;;;;;;;5.43;4.90;;;;;;;38.29;20.11;99517.84;5057315;28;20036;-70
2023/06/08 06:56:10;;;;;;;6.70;5.38;;;;;;;38.78;19.75;99528.72;5039428;28;20411;-70
2023/06/08 06:58:35;;;;;;;7.25;5.45;;;;;;;39.33;19.33;99526.34;5056370;28;20050;-69
2023/06/08 07:01:03;;;;;;;7.30;6.05;;;;;;;39.91;19.26;99529.66;5057135;28;20475;-69
2023/06/08 07:03:29;;;;;;;9.57;5.70;;;;;;;40.29;18.68;99519.22;5039061;28;20052;-71
2023/06/08 07:05:57;;;;;;;9.13;5.65;;;;;;;40.68;18.19;99509.50;5055841;28;20502;-70
2023/06/08 07:08:29;;;;;;;8.40;5.88;;;;;;;41.03;18.42;99533.94;5057283;28;20044;-69
2023/06/08 07:10:57;;;;;;;8.32;6.20;;;;;;;41.23;17.76;99527.06;5038718;28;20175;-70
2023/06/08 07:13:22;;;;;;;7.22;6.15;;;;;;;41.48;17.73;99522.84;5060120;28;20047;-68
2023/06/08 07:15:47;;;;;;;6.95;5.85;;;;;;;41.36;17.54;99525.38;5061670;28;20054;-71
2023/06/08 07:18:12;;;;;;;8.38;6.78;;;;;;;41.37;17.75;99529.84;5041027;28;20047;-70
2023/06/08 07:20:37;;;;;;;6.90;6.20;;;;;;;41.42;17.35;99518.53;5022368;28;20054;-69
2023/06/08 07:23:05;;;;;;;8.25;5.93;;;;;;;41.64;17.04;99515.78;5057202;28;20059;-71
2023/06/08 07:25:30;;;;;;;6.68;6.07;;;;;;;41.93;16.90;99515.31;5056095;28;20039;-69
2023/06/08 07:27:55;;;;;;;7.28;6.60;;;;;;;42.23;17.09;99514.53;5057817;28;20495;-70
2023/06/08 07:30:21;;;;;;;15.10;7.97;;;;;;;42.45;16.64;99521.25;5060000;28;20031;-69
2023/06/08 07:32:46;;;;;;;9.60;7.10;;;;;;;42.61;16.67;99512.09;5062182;28;20486;-70
2023/06/08 07:35:11;;;;;;;7.93;7.13;;;;;;;42.96;16.48;99518.66;5041516;28;20043;-71
2023/06/08 07:37:37;;;;;;;8.15;7.30;;;;;;;43.13;16.61;99514.22;5039223;28;20054;-70
2023/06/08 07:40:07;;;;;;;7.55;6.85;;;;;;;43.28;16.65;99519.38;5057510;28;20039;-71
2023/06/08 07:42:32;;;;;;;11.55;6.60;;;;;;;43.95;16.38;99525.31;5057588;28;20051;-71
2023/06/08 07:44:57;;;;;;;8.00;7.20;;;;;;;44.82;16.07;99523.91;5055342;28;20040;-72
2023/06/08 07:47:23;;;;;;;11.55;8.63;;;;;;;45.41;14.97;99509.78;5038221;28;20048;-71
2023/06/08 07:49:48;;;;;;;9.95;9.05;;;;;;;45.80;14.95;99514.13;5056609;28;20520;-70
2023/06/08 07:52:13;;;;;;;11.43;9.30;;;;;;;46.28;15.02;99519.09;5056570;28;20048;-70
2023/06/08 07:54:38;;;;;;;10.35;9.32;;;;;;;45.52;14.54;99513.88;5038436;28;20506;-70
2023/06/08 07:57:04;;;;;;;11.38;8.88;;;;;;;44.83;15.23;99513.47;5056455;28;20044;-70
2023/06/08 07:59:29;;;;;;;8.77;7.93;;;;;;;44.85;15.38;99502.72;5037281;28;20052;-74
2023/06/08 08:01:54;;;;;;;10.30;8.45;;;;;;;45.22;15.20;99506.66;5055847;28;20083;-71
2023/06/08 08:04:20;;;;;;;9.52;8.57;;;;;;;44.74;15.62;99505.09;5037935;28;20055;-70
2023/06/08 08:06:45;;;;;;;8.98;7.82;;;;;;;43.54;15.68;99502.56;5056497;28;20051;-70
2023/06/08 08:09:10;;;;;;;9.27;8.35;;;;;;;43.61;15.55;99503.72;5037368;28;20056;-70
2023/06/08 08:11:37;;;;;;;10.30;8.48;;;;;;;44.28;15.61;99493.84;5055803;28;20075;-70
2023/06/08 08:14:02;;;;;;;10.02;9.00;;;;;;;44.98;14.94;99489.56;5037422;28;20039;-70
2023/06/08 08:16:27;;;;;;;16.23;10.52;;;;;;;45.90;14.26;99493.16;5036953;28;20052;-71
2023/06/08 08:18:53;;;;;;;26.35;16.13;;;;;;;46.81;13.68;99502.34;5054797;28;20054;-71
2023/06/08 08:21:19;;;;;;;11.75;10.10;;;;;;;47.39;13.61;99501.00;5056085;28;20048;-69
2023/06/08 08:23:45;;;;;;;12.68;11.50;;;;;;;47.50;12.99;99502.13;5055863;28;20813;-69
2023/06/08 08:26:10;;;;;;;11.65;10.55;;;;;;;47.44;13.47;99497.91;5055762;28;20056;-70
2023/06/08 08:28:41;;;;;;;11.88;10.77;;;;;;;47.68;13.26;99497.81;5055567;28;20048;-70
2023/06/08 08:31:06;;;;;;;13.30;11.85;;;;;;;47.90;13.31;99501.25;5055706;28;20052;-70
2023/06/08 08:33:31;;;;;;;11.88;10.90;;;;;;;48.12;13.25;99503.50;5036650;28;20054;-69
2023/06/08 08:35:56;;;;;;;14.77;13.80;;;;;;;48.39;13.12;99505.44;5055465;28;20502;-70
2023/06/08 08:38:21;;;;;;;14.52;13.43;;;;;;;48.50;12.58;99507.75;5036874;28;20040;-72
2023/06/08 08:40:48;;;;;;;13.15;12.23;;;;;;;48.05;12.43;99508.97;5055420;28;20494;-71
2023/06/08 08:43:23;;;;;;;13.20;12.20;;;;;;;48.48;12.42;99504.47;5037175;28;20048;-71
2023/06/08 08:45:50;;;;;;;14.57;13.48;;;;;;;48.60;12.46;99495.88;5055594;28;20050;-72
2023/06/08 08:48:19;;;;;;;15.80;14.65;;;;;;;49.17;12.66;99503.75;5037152;28;20388;-73
2023/06/08 08:50:53;;;;;;;16.10;14.90;;;;;;;49.64;12.42;99497.09;5054614;28;20084;-71
2023/06/08 08:53:27;;;;;;;17.33;16.00;;;;;;;49.63;12.65;99498.28;5055216;28;20036;-71
2023/06/08 08:55:53;;;;;;;18.13;16.92;;;;;;;49.94;12.19;99492.44;5036948;28;20048;-71
2023/06/08 08:58:20;;;;;;;18.35;17.00;;;;;;;49.93;11.96;99493.63;5055222;28;20047;-72
2023/06/08 09:00:48;;;;;;;18.83;17.80;;;;;;;50.10;11.74;99489.50;5055270;28;20044;-71
2023/06/08 09:03:18;;;;;;;18.58;17.48;;;;;;;50.27;11.63;99482.53;5033454;28;20052;-71
2023/06/08 09:05:44;;;;;;;19.75;18.60;;;;;;;50.38;11.42;99490.03;5029651;28;20499;-72
2023/06/08 09:08:10;;;;;;;21.38;19.92;;;;;;;50.37;11.51;99482.72;5053342;28;20046;-70
2023/06/08 09:10:36;;;;;;;19.70;18.50;;;;;;;50.51;11.71;99473.63;5055022;28;20043;-72
2023/06/08 09:13:01;;;;;;;22.45;20.92;;;;;;;50.74;11.72;99480.09;5054408;28;20518;-72
2023/06/08 09:15:28;;;;;;;23.05;21.75;;;;;;;51.03;11.17;99477.69;5030281;28;20044;-71
2023/06/08 09:17:58;;;;;;;24.35;22.95;;;;;;;51.05;11.31;99472.44;5054931;28;20049;-71
2023/06/08 09:20:31;;;;;;;23.67;22.38;;;;;;;51.40;10.56;99478.63;5055153;28;20040;-74
2023/06/08 09:22:57;;;;;;;26.88;25.27;;;;;;;51.71;10.83;99473.72;5037114;28;20495;-71
2023/06/08 09:25:39;;;;;;;27.60;26.15;;;;;;;52.75;10.68;99474.34;5055019;28;20040;-71
2023/06/08 09:28:18;;;;;;;25.92;24.38;;;;;;;51.83;10.96;99474.28;5052764;28;20055;-70
2023/06/08 09:30:45;;;;;;;23.08;21.67;;;;;;;50.76;10.91;99460.66;5054705;28;20048;-69
2023/06/08 09:33:20;;;;;;;22.92;21.63;;;;;;;51.09;11.20;99456.28;5036291;28;20051;-70
2023/06/08 09:35:46;;;;;;;23.35;22.00;;;;;;;50.96;11.26;99452.03;5054710;28;20051;-70
2023/06/08 09:38:18;;;;;;;25.58;24.08;;;;;;;51.44;10.60;99461.63;5053348;28;20051;-70
2023/06/08 09:40:46;;;;;;;25.77;24.38;;;;;;;51.72;11.11;99455.47;5053323;28;20043;-69
2023/06/08 09:43:11;;;;;;;25.73;24.33;;;;;;;51.99;10.86;99451.31;5054542;28;20044;-70
2023/06/08 09:45:44;;;;;;;31.20;29.65;;;;;;;52.60;10.61;99444.16;5054856;28;20517;-69
2023/06/08 09:48:10;;;;;;;31.17;29.45;;;;;;;52.52;10.52;99448.13;5036151;28;20052;-71
2023/06/08 09:50:36;;;;;;;29.90;28.50;;;;;;;52.01;10.93;99450.94;5033070;28;20056;-71
2023/06/08 09:53:04;;;;;;;26.83;25.20;;;;;;;49.85;11.42;99449.34;5052523;28;20044;-70
2023/06/08 09:55:29;;;;;;;20.20;18.80;;;;;;;48.93;11.94;99434.03;5054809;28;20044;-70
2023/06/08 09:57:56;;;;;;;23.30;21.52;;;;;;;49.33;11.90;99439.34;5050494;28;20059;-70
2023/06/08 10:00:25;;;;;;;21.77;20.23;;;;;;;50.20;11.30;99434.19;5053123;28;20486;-70
2023/06/08 10:03:31;;;;;;;22.88;21.50;;;;;;;52.22;11.50;99434.91;5004020;28;20059;-70
2023/06/08 10:05:59;;;;;;;25.08;23.67;;;;;;;50.94;11.23;99431.72;4992851;28;20085;-71
2023/06/08 10:08:27;;;;;;;25.48;23.98;;;;;;;51.28;11.31;99438.28;4957787;28;20042;-72
2023/06/08 10:10:55;;;;;;;30.42;28.75;;;;;;;51.89;10.97;99438.63;4956289;28;20061;-70
2023/06/08 10:13:22;;;;;;;29.65;27.75;;;;;;;52.38;10.90;99437.44;4957320;28;20042;-71
2023/06/08 10:15:47;;;;;;;35.53;33.53;;;;;;;52.83;10.76;99418.28;4940123;28;20177;-71
2023/06/08 10:18:13;;;;;;;37.47;35.47;;;;;;;53.02;10.05;99420.84;4945974;28;20042;-71
2023/06/08 10:20:39;;;;;;;41.67;39.58;;;;;;;53.10;10.18;99422.47;4956435;28;20500;-76
2023/06/08 10:23:05;;;;;;;37.78;35.80;;;;;;;53.32;10.08;99417.72;4956546;28;20061;-76
2023/06/08 10:25:31;;;;;;;40.15;38.25;;;;;;;53.37;10.21;99414.50;4974124;28;20045;-78
2023/06/08 10:28:05;;;;;;;41.70;39.70;;;;;;;53.73;9.26;99418.28;4957017;28;20046;-76
2023/06/08 10:30:39;;;;;;;38.72;36.55;;;;;;;51.88;10.40;99419.09;4972666;28;20508;-76
2023/06/08 10:33:21;;;;;;;28.50;27.00;;;;;;;48.90;11.61;99403.63;4969709;28;20058;-76
2023/06/08 10:36:21;;;;;;;18.77;17.67;;;;;;;46.38;12.74;99404.22;4960359;28;20554;-76
2023/06/08 10:38:59;;;;;;;12.07;10.88;;;;;;;42.80;15.05;99393.22;4998217;28;20060;-76
2023/06/08 10:41:39;;;;;;;10.02;9.13;;;;;;;40.13;16.22;99392.13;5013023;28;20053;-77
2023/06/08 10:44:04;;;;;;;8.57;7.78;;;;;;;37.16;17.38;99382.75;4994217;28;20045;-77
2023/06/08 10:46:43;;;;;;;7.72;7.03;;;;;;;35.81;18.40;99387.53;5011872;28;20052;-77
2023/06/08 10:49:08;;;;;;;7.80;6.68;;;;;;;34.29;20.75;99384.53;5010271;28;20049;-75
2023/06/08 10:51:45;;;;;;;7.70;6.07;;;;;;;33.84;20.96;99385.94;5012106;28;20076;-74
2023/06/08 10:54:21;;;;;;;8.95;6.60;;;;;;;33.35;22.13;99382.53;4981705;28;20053;-73
2023/06/08 10:56:52;;;;;;;9.50;6.28;;;;;;;32.63;22.57;99369.06;5015633;28;20044;-74
2023/06/08 10:59:17;;;;;;;8.82;6.60;;;;;;;32.25;23.02;99370.03;4998742;28;20404;-76
2023/06/08 11:01:45;;;;;;;9.52;5.85;;;;;;;31.96;23.43;99369.34;5004538;28;20081;-73
2023/06/08 11:04:11;;;;;;;7.55;5.47;;;;;;;31.60;22.82;99368.00;5018060;28;20061;-75
2023/06/08 11:06:38;;;;;;;9.10;5.55;;;;;;;31.34;23.55;99369.50;5005505;28;20506;-75
2023/06/08 11:09:04;;;;;;;5.82;5.00;;;;;;;31.07;24.11;99371.22;5000925;28;20428;-75
2023/06/08 11:11:30;;;;;;;11.00;5.40;;;;;;;30.91;24.85;99361.88;5011428;28;20048;-75
2023/06/08 11:13:56;;;;;;;6.85;5.60;;;;;;;30.78;25.19;99358.59;5027153;28;20048;-74
2023/06/08 11:16:21;;;;;;;7.68;5.47;;;;;;;30.57;25.01;99354.63;5025158;28;20040;-74
2023/06/08 11:18:46;;;;;;;6.82;5.47;;;;;;;30.29;25.51;99355.41;5057277;28;20047;-74
2023/06/08 11:21:12;;;;;;;9.07;4.65;;;;;;;30.04;25.84;99354.91;5056006;28;20043;-74
2023/06/08 11:23:37;;;;;;;7.72;5.32;;;;;;;29.88;26.77;99353.72;5056879;28;20052;-73
2023/06/08 11:26:03;;;;;;;6.53;5.65;;;;;;;29.68;26.97;99356.03;5057423;28;20047;-75